Time;durP1;ratioP1;P1;durP2;ratioP2;P2;SDS_P1;SDS_P2;PMS_P1;PMS_P2;Temp;Humidity;BMP_temperature;BMP_pressure;BME280_temperature;BME280_humidity;BME280_pressure;Samples;Min_cycle;Max_cycle;Signal;HPM_P1;HPM_P2
2023/12/12 00:03:19;;;;;;;0.93;0.20;;;1.70;99.90;;;;;;20912706;28;20033;-62
2023/12/12 00:13:21;;;;;;;1.25;0.20;;;1.50;99.90;;;;;;20893878;28;20033;-54
2023/12/12 00:23:22;;;;;;;0.25;0.10;;;1.40;99.90;;;;;;20961382;28;20037;-62
2023/12/12 00:33:24;;;;;;;2.60;0.20;;;1.50;99.90;;;;;;20925065;28;20099;-59
2023/12/12 00:43:26;;;;;;;0.30;0.10;;;1.70;99.90;;;;;;20952011;28;20343;-61
2023/12/12 00:53:27;;;;;;;0.10;0.00;;;1.60;99.90;;;;;;20909077;28;20033;-59
2023/12/12 01:03:29;;;;;;;0.00;0.00;;;1.50;99.90;;;;;;20907743;28;20103;-62
2023/12/12 01:13:34;;;;;;;0.30;0.10;;;1.50;99.90;;;;;;20913390;28;20382;-48
2023/12/12 01:23:48;;;;;;;0.43;0.10;;;1.70;99.90;;;;;;20971037;28;20048;-62
2023/12/12 01:33:51;;;;;;;0.40;0.00;;;2.10;99.90;;;;;;20956815;28;20033;-52
2023/12/12 01:43:52;;;;;;;0.95;0.25;;;2.20;99.90;;;;;;20958068;28;20099;-62
2023/12/12 01:53:56;;;;;;;0.13;0.00;;;2.40;99.90;;;;;;20906460;28;20033;-49
2023/12/12 02:03:59;;;;;;;0.10;0.00;;;2.30;99.90;;;;;;20903894;28;20375;-62
2023/12/12 02:14:01;;;;;;;0.08;0.00;;;2.10;99.90;;;;;;20958141;28;20024;-62
2023/12/12 02:24:03;;;;;;;0.47;0.00;;;2.70;99.90;;;;;;20986194;28;20044;-62
2023/12/12 02:34:06;;;;;;;0.10;0.10;;;2.90;99.90;;;;;;20913073;28;20048;-62
2023/12/12 02:44:07;;;;;;;0.00;0.00;;;2.80;99.90;;;;;;20945244;28;20029;-62
2023/12/12 02:54:09;;;;;;;0.10;0.00;;;2.50;99.90;;;;;;20910967;28;20036;-62
2023/12/12 03:04:11;;;;;;;1.48;0.10;;;2.40;99.90;;;;;;20917180;28;20464;-62
2023/12/12 03:14:13;;;;;;;0.10;0.00;;;2.70;99.90;;;;;;20928201;28;20037;-62
2023/12/12 03:24:15;;;;;;;0.00;0.00;;;2.60;99.90;;;;;;20998561;28;20456;-62
2023/12/12 03:34:17;;;;;;;0.00;0.00;;;2.80;99.90;;;;;;20993523;28;20040;-62
2023/12/12 03:44:19;;;;;;;0.00;0.00;;;2.70;99.90;;;;;;20994720;28;20040;-56
2023/12/12 03:54:20;;;;;;;0.00;0.00;;;2.60;99.90;;;;;;20994633;28;20095;-62
2023/12/12 04:04:26;;;;;;;0.00;0.00;;;2.40;99.90;;;;;;20992510;28;20048;-62
2023/12/12 04:14:30;;;;;;;0.70;0.00;;;2.40;99.90;;;;;;20984803;28;20112;-62
2023/12/12 04:24:35;;;;;;;0.13;0.00;;;2.60;99.90;;;;;;20991570;28;20083;-62
2023/12/12 04:34:36;;;;;;;0.10;0.00;;;2.60;99.90;;;;;;20991896;28;20024;-61
2023/12/12 04:44:41;;;;;;;0.00;0.00;;;2.20;99.90;;;;;;20988916;28;20127;-62
2023/12/12 04:54:43;;;;;;;0.00;0.00;;;2.30;99.90;;;;;;20988039;28;20394;-61
2023/12/12 05:04:45;;;;;;;0.00;0.00;;;2.40;99.90;;;;;;20968649;28;20048;-62
2023/12/12 05:14:47;;;;;;;0.10;0.00;;;2.50;99.90;;;;;;20975115;28;20033;-62
2023/12/12 05:24:49;;;;;;;0.00;0.00;;;2.30;99.90;;;;;;20986661;28;20049;-62
2023/12/12 05:34:50;;;;;;;0.00;0.00;;;2.20;99.90;;;;;;20985751;28;20362;-54
2023/12/12 05:44:52;;;;;;;0.00;0.00;;;2.00;99.90;;;;;;20981750;28;20559;-49
2023/12/12 05:54:54;;;;;;;0.00;0.00;;;1.90;99.90;;;;;;20987449;28;20032;-62
2023/12/12 06:04:56;;;;;;;0.00;0.00;;;1.80;99.90;;;;;;20984080;28;20040;-60
2023/12/12 06:14:59;;;;;;;0.00;0.00;;;1.80;99.90;;;;;;20975543;28;20037;-61
2023/12/12 06:25:01;;;;;;;0.00;0.00;;;1.80;99.90;;;;;;20986095;28;20490;-61
2023/12/12 06:35:04;;;;;;;0.95;0.00;;;1.90;99.90;;;;;;21000122;28;20041;-61
2023/12/12 06:45:09;;;;;;;0.00;0.00;;;2.00;99.90;;;;;;20998880;28;20441;-61
2023/12/12 06:55:11;;;;;;;0.10;0.00;;;2.10;99.90;;;;;;20998768;28;20081;-61
2023/12/12 07:05:15;;;;;;;0.35;0.00;;;2.00;99.90;;;;;;20997046;28;20090;-61
2023/12/12 07:15:16;;;;;;;0.00;0.00;;;2.10;99.90;;;;;;20988099;28;20028;-61
2023/12/12 07:25:20;;;;;;;0.77;0.00;;;2.10;99.90;;;;;;20992159;28;20040;-55
2023/12/12 07:35:23;;;;;;;0.00;0.00;;;2.70;99.90;;;;;;20989208;28;20041;-62
2023/12/12 07:45:24;;;;;;;0.00;0.00;;;3.10;99.90;;;;;;20977764;28;20040;-52
2023/12/12 07:55:26;;;;;;;0.38;0.00;;;3.50;99.90;;;;;;20989272;28;20398;-62
2023/12/12 08:05:28;;;;;;;0.10;0.00;;;3.70;99.90;;;;;;20981821;28;20119;-62
2023/12/12 08:15:30;;;;;;;0.00;0.00;;;3.60;99.90;;;;;;20976313;28;20032;-52
2023/12/12 08:25:32;;;;;;;0.10;0.00;;;3.50;99.90;;;;;;20939623;28;1459757;-53
2023/12/12 08:35:34;;;;;;;0.28;0.10;;;3.80;99.90;;;;;;20989469;28;20363;-62
2023/12/12 08:45:35;;;;;;;0.68;0.10;;;4.20;99.90;;;;;;20989496;28;20039;-61
2023/12/12 08:55:41;;;;;;;0.10;0.10;;;4.50;99.90;;;;;;20985607;28;20036;-52
2023/12/12 09:05:44;;;;;;;0.47;0.20;;;5.10;99.90;;;;;;20988143;28;20428;-52
2023/12/12 09:15:46;;;;;;;0.10;0.00;;;5.70;99.90;;;;;;20987036;28;20385;-62
2023/12/12 09:25:49;;;;;;;0.15;0.10;;;5.90;99.90;;;;;;20986185;28;20493;-53
2023/12/12 09:35:52;;;;;;;0.30;0.10;;;6.30;99.90;;;;;;20985096;28;20123;-62
2023/12/12 09:45:57;;;;;;;0.80;0.30;;;6.80;99.90;;;;;;20984847;28;20036;-61
2023/12/12 09:56:04;;;;;;;0.20;0.10;;;7.60;99.90;;;;;;20984444;28;20037;-57
2023/12/12 10:06:10;;;;;;;0.28;0.10;;;8.10;99.90;;;;;;20977928;28;20048;-63
2023/12/12 10:16:13;;;;;;;0.00;0.00;;;8.50;99.90;;;;;;20983707;28;20571;-55
2023/12/12 10:26:15;;;;;;;0.35;0.22;;;8.90;99.90;;;;;;20978482;28;20086;-53
2023/12/12 10:36:17;;;;;;;0.22;0.20;;;9.70;99.90;;;;;;20983293;28;20036;-52
2023/12/12 10:46:19;;;;;;;1.70;0.70;;;9.90;99.90;;;;;;20982560;28;20109;-52
2023/12/12 10:56:22;;;;;;;1.35;0.40;;;9.80;99.90;;;;;;20982071;28;20044;-59
2023/12/12 11:06:25;;;;;;;2.35;1.08;;;9.50;99.90;;;;;;20997910;28;20577;-51
2023/12/12 11:16:30;;;;;;;1.80;1.10;;;9.30;99.90;;;;;;20983174;28;20025;-62
2023/12/12 11:26:33;;;;;;;0.98;0.73;;;9.00;99.90;;;;;;20996045;28;20052;-62
2023/12/12 11:36:47;;;;;;;1.55;0.60;;;8.90;99.90;;;;;;20995763;28;20121;-61
2023/12/12 11:46:51;;;;;;;1.52;0.60;;;9.10;99.90;;;;;;20994470;28;20047;-51
2023/12/12 11:56:58;;;;;;;3.13;1.88;;;9.20;99.90;;;;;;20975482;28;20029;-58
2023/12/12 12:07:01;;;;;;;2.70;1.65;;;9.20;99.90;;;;;;20986957;28;20021;-50
2023/12/12 12:17:03;;;;;;;2.90;1.30;;;9.10;99.90;;;;;;20982913;28;20564;-62
2023/12/12 12:27:05;;;;;;;1.58;1.20;;;8.90;99.90;;;;;;20971981;28;20060;-56
2023/12/12 12:37:07;;;;;;;5.43;3.00;;;9.40;99.90;;;;;;20990621;28;20531;-56
2023/12/12 12:47:10;;;;;;;5.07;2.92;;;9.40;99.90;;;;;;20988383;28;20439;-56
2023/12/12 12:57:12;;;;;;;3.72;2.22;;;8.90;99.90;;;;;;20985291;28;20032;-55
2023/12/12 13:07:14;;;;;;;4.20;2.97;;;8.60;99.90;;;;;;20953946;28;20116;-53
2023/12/12 13:17:16;;;;;;;5.38;3.45;;;8.20;99.90;;;;;;20987180;28;20029;-52
2023/12/12 13:27:19;;;;;;;5.18;3.20;;;7.70;99.90;;;;;;20986553;28;20052;-54
2023/12/12 13:37:21;;;;;;;5.75;3.63;;;7.20;99.90;;;;;;20985155;28;20028;-51
2023/12/12 13:47:27;;;;;;;7.50;4.53;;;6.90;99.90;;;;;;20981726;28;20024;-55
2023/12/12 13:57:28;;;;;;;6.90;4.30;;;6.90;99.90;;;;;;20984521;28;20363;-58
2023/12/12 14:07:30;;;;;;;7.35;4.13;;;6.50;99.90;;;;;;20977969;28;20029;-60
2023/12/12 14:17:33;;;;;;;9.02;5.15;;;6.40;99.90;;;;;;20957607;28;20028;-51
2023/12/12 14:27:34;;;;;;;7.40;4.82;;;6.00;99.90;;;;;;20983434;28;20052;-61
2023/12/12 14:37:36;;;;;;;8.88;5.43;;;5.50;99.90;;;;;;20965500;28;20544;-61
2023/12/12 14:47:41;;;;;;;9.55;5.95;;;5.00;99.90;;;;;;20987172;28;20032;-50
2023/12/12 14:57:46;;;;;;;9.55;5.60;;;4.70;99.90;;;;;;20997996;28;20029;-52
2023/12/12 15:07:48;;;;;;;10.70;5.80;;;4.40;99.90;;;;;;20998223;28;20036;-52
2023/12/12 15:17:50;;;;;;;9.40;5.30;;;4.00;99.90;;;;;;20987941;28;20021;-57
2023/12/12 15:27:52;;;;;;;10.60;5.55;;;3.50;99.90;;;;;;20996393;28;20036;-51
2023/12/12 15:37:54;;;;;;;10.27;6.40;;;3.00;99.90;;;;;;20994935;28;20098;-49
2023/12/12 15:47:59;;;;;;;10.93;5.85;;;2.60;99.90;;;;;;20993364;28;20032;-51
2023/12/12 15:58:01;;;;;;;8.77;5.53;;;2.20;99.90;;;;;;20971994;28;20094;-59
2023/12/12 16:08:04;;;;;;;8.50;5.30;;;2.00;99.90;;;;;;20993913;28;20032;-60
2023/12/12 16:18:06;;;;;;;7.85;5.07;;;1.80;99.90;;;;;;20986218;28;20032;-61
2023/12/12 16:28:08;;;;;;;6.40;3.53;;;1.60;99.90;;;;;;20993831;28;20048;-61
2023/12/12 16:38:18;;;;;;;6.25;3.75;;;1.40;99.90;;;;;;20975253;28;20070;-51
2023/12/12 16:48:20;;;;;;;5.30;2.77;;;1.50;99.90;;;;;;20992546;28;20028;-61
2023/12/12 16:58:22;;;;;;;4.85;2.78;;;1.60;99.90;;;;;;20991487;28;20040;-60
2023/12/12 17:08:24;;;;;;;2.63;1.83;;;1.70;99.90;;;;;;20990256;28;20032;-58
2023/12/12 17:18:27;;;;;;;6.53;2.00;;;1.80;99.90;;;;;;20989447;28;20551;-52
2023/12/12 17:28:29;;;;;;;5.47;2.17;;;1.80;99.90;;;;;;20963034;28;20033;-53
2023/12/12 17:38:31;;;;;;;4.15;2.05;;;1.90;99.90;;;;;;20905789;28;20443;-61
2023/12/12 17:48:33;;;;;;;3.78;2.35;;;2.60;99.90;;;;;;20905575;28;20037;-53
2023/12/12 17:58:34;;;;;;;6.93;2.30;;;3.10;99.90;;;;;;20904499;28;20048;-49
2023/12/12 18:08:41;;;;;;;2.78;1.17;;;2.80;99.90;;;;;;20885419;28;20040;-61
2023/12/12 18:18:42;;;;;;;3.10;1.38;;;3.00;99.90;;;;;;20899389;28;20067;-61
2023/12/12 18:28:46;;;;;;;3.75;1.58;;;3.60;99.90;;;;;;20920337;28;20041;-61
2023/12/12 18:38:49;;;;;;;4.82;2.38;;;3.80;99.90;;;;;;20919964;28;20033;-62
2023/12/12 18:48:51;;;;;;;5.72;2.50;;;3.50;99.90;;;;;;20918733;28;20059;-53
2023/12/12 18:58:53;;;;;;;3.70;2.15;;;3.40;99.90;;;;;;20918373;28;20033;-61
2023/12/12 19:08:55;;;;;;;4.30;2.08;;;3.60;99.90;;;;;;20917939;28;20033;-62
2023/12/12 19:18:57;;;;;;;5.07;2.47;;;3.60;99.90;;;;;;20927472;28;20042;-62
2023/12/12 19:28:58;;;;;;;5.47;2.45;;;3.60;99.90;;;;;;20998536;28;20063;-52
2023/12/12 19:39:00;;;;;;;8.25;3.30;;;4.10;99.90;;;;;;20997417;28;20489;-55
2023/12/12 19:49:03;;;;;;;6.53;4.00;;;4.30;99.90;;;;;;20997221;28;20032;-62
2023/12/12 19:59:05;;;;;;;10.18;5.28;;;3.80;99.90;;;;;;20996257;28;20090;-62
2023/12/12 20:09:07;;;;;;;12.73;5.88;;;3.70;99.90;;;;;;20976963;28;20098;-63
2023/12/12 20:19:09;;;;;;;6.75;3.00;;;4.10;99.90;;;;;;20994272;28;20040;-55
2023/12/12 20:29:14;;;;;;;4.88;2.15;;;4.50;99.90;;;;;;20990378;28;20033;-57
2023/12/12 20:39:15;;;;;;;14.15;7.78;;;5.10;99.90;;;;;;20993401;28;20104;-63
2023/12/12 20:49:19;;;;;;;65.57;10.38;;;4.80;99.90;;;;;;20991228;28;20486;-62
2023/12/12 20:59:21;;;;;;;157.20;12.80;;;4.10;99.90;;;;;;20991575;28;20050;-62
2023/12/12 21:09:26;;;;;;;81.30;9.95;;;3.70;99.90;;;;;;20991035;28;20032;-66
2023/12/12 21:19:27;;;;;;;224.18;13.15;;;3.50;99.90;;;;;;20989630;28;20047;-68
2023/12/12 21:29:31;;;;;;;6.07;3.25;;;3.30;99.90;;;;;;20985452;28;20062;-57
2023/12/12 21:39:36;;;;;;;178.45;13.15;;;3.40;99.90;;;;;;20988953;28;20028;-67
2023/12/12 21:49:38;;;;;;;298.77;15.90;;;3.80;99.90;;;;;;20988468;28;20349;-61
2023/12/12 21:59:40;;;;;;;5.20;3.40;;;3.50;99.90;;;;;;20987052;28;20105;-58
2023/12/12 22:09:45;;;;;;;5.97;3.30;;;3.40;99.90;;;;;;20982143;28;20028;-65
2023/12/12 22:19:47;;;;;;;59.78;4.72;;;3.40;99.90;;;;;;20985832;28;20040;-65
2023/12/12 22:29:48;;;;;;;551.63;18.77;;;3.50;99.90;;;;;;20986092;28;20063;-64
2023/12/12 22:39:50;;;;;;;3.50;1.33;;;3.50;99.90;;;;;;20986187;28;20137;-65
2023/12/12 22:49:52;;;;;;;0.38;0.20;;;3.50;99.90;;;;;;20967564;28;20032;-61
2023/12/12 22:59:54;;;;;;;1.00;0.30;;;3.80;99.90;;;;;;20984473;28;20082;-65
2023/12/12 23:09:55;;;;;;;2.17;0.60;;;4.70;99.90;;;;;;20991292;28;20024;-55
2023/12/12 23:19:57;;;;;;;548.30;17.67;;;5.30;99.90;;;;;;20981151;28;20456;-65
2023/12/12 23:29:59;;;;;;;558.10;17.80;;;5.40;99.90;;;;;;20995117;28;20033;-64
2023/12/12 23:40:01;;;;;;;340.85;9.30;;;5.30;99.90;;;;;;20997981;28;20059;-56
2023/12/12 23:50:06;;;;;;;242.20;6.85;;;5.30;99.90;;;;;;20997109;28;20050;-64
